sensor_id;sensor_type;location;lat;lon;timestamp;P1;durP1;ratioP1;P2;durP2;ratioP2
20454;SDS011;10386;54.314;10.022;2024-02-28T00:01:02;23.20;;;12.87;;
20454;SDS011;10386;54.314;10.022;2024-02-28T00:03:29;24.33;;;12.83;;
20454;SDS011;10386;54.314;10.022;2024-02-28T00:05:58;24.67;;;13.03;;
20454;SDS011;10386;54.314;10.022;2024-02-28T00:08:25;22.77;;;12.33;;
20454;SDS011;10386;54.314;10.022;2024-02-28T00:10:52;23.53;;;11.87;;
20454;SDS011;10386;54.314;10.022;2024-02-28T00:13:20;23.70;;;12.60;;
20454;SDS011;10386;54.314;10.022;2024-02-28T00:15:49;26.73;;;13.27;;
20454;SDS011;10386;54.314;10.022;2024-02-28T00:18:16;27.17;;;12.53;;
20454;SDS011;10386;54.314;10.022;2024-02-28T00:20:46;24.87;;;12.43;;
20454;SDS011;10386;54.314;10.022;2024-02-28T00:23:13;24.70;;;13.37;;
20454;SDS011;10386;54.314;10.022;2024-02-28T00:25:40;29.73;;;14.63;;
20454;SDS011;10386;54.314;10.022;2024-02-28T00:28:07;28.90;;;13.30;;
20454;SDS011;10386;54.314;10.022;2024-02-28T00:30:35;27.67;;;13.63;;
20454;SDS011;10386;54.314;10.022;2024-02-28T00:33:02;30.27;;;13.87;;
20454;SDS011;10386;54.314;10.022;2024-02-28T00:35:31;25.03;;;12.93;;
20454;SDS011;10386;54.314;10.022;2024-02-28T00:38:03;30.70;;;14.13;;
20454;SDS011;10386;54.314;10.022;2024-02-28T00:40:30;25.77;;;12.73;;
20454;SDS011;10386;54.314;10.022;2024-02-28T00:42:57;27.27;;;13.17;;
20454;SDS011;10386;54.314;10.022;2024-02-28T00:45:24;26.60;;;13.33;;
20454;SDS011;10386;54.314;10.022;2024-02-28T00:47:51;32.00;;;14.73;;
20454;SDS011;10386;54.314;10.022;2024-02-28T00:50:18;34.13;;;15.43;;
20454;SDS011;10386;54.314;10.022;2024-02-28T00:52:45;34.43;;;14.90;;
20454;SDS011;10386;54.314;10.022;2024-02-28T00:55:12;34.13;;;15.10;;
20454;SDS011;10386;54.314;10.022;2024-02-28T00:57:38;31.90;;;14.87;;
20454;SDS011;10386;54.314;10.022;2024-02-28T01:00:05;30.77;;;14.37;;
20454;SDS011;10386;54.314;10.022;2024-02-28T01:02:33;35.83;;;15.07;;
20454;SDS011;10386;54.314;10.022;2024-02-28T01:05:00;30.17;;;14.77;;
20454;SDS011;10386;54.314;10.022;2024-02-28T01:07:27;33.77;;;15.20;;
20454;SDS011;10386;54.314;10.022;2024-02-28T01:09:54;33.13;;;14.10;;
20454;SDS011;10386;54.314;10.022;2024-02-28T01:12:21;30.00;;;13.47;;
20454;SDS011;10386;54.314;10.022;2024-02-28T01:14:48;28.00;;;13.23;;
20454;SDS011;10386;54.314;10.022;2024-02-28T01:17:15;28.60;;;13.40;;
20454;SDS011;10386;54.314;10.022;2024-02-28T01:19:42;27.53;;;12.50;;
20454;SDS011;10386;54.314;10.022;2024-02-28T01:22:09;29.73;;;13.70;;
20454;SDS011;10386;54.314;10.022;2024-02-28T01:24:36;26.63;;;12.67;;
20454;SDS011;10386;54.314;10.022;2024-02-28T01:27:03;26.63;;;11.90;;
20454;SDS011;10386;54.314;10.022;2024-02-28T01:29:30;27.37;;;12.83;;
20454;SDS011;10386;54.314;10.022;2024-02-28T01:31:57;28.13;;;12.77;;
20454;SDS011;10386;54.314;10.022;2024-02-28T01:34:24;26.83;;;12.10;;
20454;SDS011;10386;54.314;10.022;2024-02-28T01:36:51;29.50;;;12.30;;
20454;SDS011;10386;54.314;10.022;2024-02-28T01:39:18;25.10;;;12.47;;
20454;SDS011;10386;54.314;10.022;2024-02-28T01:41:52;34.27;;;13.83;;
20454;SDS011;10386;54.314;10.022;2024-02-28T01:44:20;27.33;;;13.03;;
20454;SDS011;10386;54.314;10.022;2024-02-28T01:46:47;28.60;;;12.23;;
20454;SDS011;10386;54.314;10.022;2024-02-28T01:49:15;29.77;;;13.10;;
20454;SDS011;10386;54.314;10.022;2024-02-28T01:51:44;27.73;;;12.73;;
20454;SDS011;10386;54.314;10.022;2024-02-28T01:54:11;26.03;;;11.47;;
20454;SDS011;10386;54.314;10.022;2024-02-28T01:56:38;24.37;;;11.10;;
20454;SDS011;10386;54.314;10.022;2024-02-28T01:59:06;22.13;;;10.87;;
20454;SDS011;10386;54.314;10.022;2024-02-28T02:01:35;22.63;;;10.83;;
20454;SDS011;10386;54.314;10.022;2024-02-28T02:04:03;23.53;;;10.60;;
20454;SDS011;10386;54.314;10.022;2024-02-28T02:06:31;21.53;;;10.37;;
20454;SDS011;10386;54.314;10.022;2024-02-28T02:08:59;20.83;;;10.40;;
20454;SDS011;10386;54.314;10.022;2024-02-28T02:11:26;22.67;;;9.97;;
20454;SDS011;10386;54.314;10.022;2024-02-28T02:13:53;22.33;;;10.17;;
20454;SDS011;10386;54.314;10.022;2024-02-28T02:16:20;22.37;;;10.77;;
20454;SDS011;10386;54.314;10.022;2024-02-28T02:18:53;21.33;;;10.13;;
20454;SDS011;10386;54.314;10.022;2024-02-28T02:21:22;22.50;;;9.93;;
20454;SDS011;10386;54.314;10.022;2024-02-28T02:23:51;20.37;;;9.87;;
20454;SDS011;10386;54.314;10.022;2024-02-28T02:26:18;24.63;;;10.50;;
20454;SDS011;10386;54.314;10.022;2024-02-28T02:28:45;20.67;;;9.73;;
20454;SDS011;10386;54.314;10.022;2024-02-28T02:31:13;25.47;;;10.70;;
20454;SDS011;10386;54.314;10.022;2024-02-28T02:33:43;23.10;;;10.30;;
20454;SDS011;10386;54.314;10.022;2024-02-28T02:36:10;20.93;;;9.33;;
20454;SDS011;10386;54.314;10.022;2024-02-28T02:38:37;22.37;;;9.63;;
20454;SDS011;10386;54.314;10.022;2024-02-28T02:41:04;24.63;;;9.53;;
20454;SDS011;10386;54.314;10.022;2024-02-28T02:43:31;20.70;;;9.87;;
20454;SDS011;10386;54.314;10.022;2024-02-28T02:45:57;21.40;;;9.57;;
20454;SDS011;10386;54.314;10.022;2024-02-28T02:48:24;24.90;;;10.03;;
20454;SDS011;10386;54.314;10.022;2024-02-28T02:50:51;21.83;;;10.20;;
20454;SDS011;10386;54.314;10.022;2024-02-28T02:53:18;21.30;;;9.60;;
20454;SDS011;10386;54.314;10.022;2024-02-28T02:55:46;22.67;;;10.40;;
20454;SDS011;10386;54.314;10.022;2024-02-28T02:58:12;23.03;;;10.60;;
20454;SDS011;10386;54.314;10.022;2024-02-28T03:00:39;24.50;;;9.80;;
20454;SDS011;10386;54.314;10.022;2024-02-28T03:03:06;20.63;;;9.83;;
20454;SDS011;10386;54.314;10.022;2024-02-28T03:05:33;23.27;;;10.10;;
20454;SDS011;10386;54.314;10.022;2024-02-28T03:08:00;21.40;;;10.30;;
20454;SDS011;10386;54.314;10.022;2024-02-28T03:10:27;22.20;;;9.33;;
20454;SDS011;10386;54.314;10.022;2024-02-28T03:12:54;20.67;;;9.50;;
20454;SDS011;10386;54.314;10.022;2024-02-28T03:15:21;24.80;;;10.50;;
20454;SDS011;10386;54.314;10.022;2024-02-28T03:17:48;27.10;;;10.67;;
20454;SDS011;10386;54.314;10.022;2024-02-28T03:20:14;23.50;;;10.67;;
20454;SDS011;10386;54.314;10.022;2024-02-28T03:22:41;25.10;;;11.27;;
20454;SDS011;10386;54.314;10.022;2024-02-28T03:25:08;25.10;;;10.80;;
20454;SDS011;10386;54.314;10.022;2024-02-28T03:27:36;23.87;;;10.63;;
20454;SDS011;10386;54.314;10.022;2024-02-28T03:30:03;24.60;;;10.83;;
20454;SDS011;10386;54.314;10.022;2024-02-28T03:32:30;25.93;;;11.50;;
20454;SDS011;10386;54.314;10.022;2024-02-28T03:34:57;26.63;;;12.00;;
20454;SDS011;10386;54.314;10.022;2024-02-28T03:37:24;23.97;;;11.13;;
20454;SDS011;10386;54.314;10.022;2024-02-28T03:39:51;23.73;;;10.70;;
20454;SDS011;10386;54.314;10.022;2024-02-28T03:42:18;22.60;;;10.57;;
20454;SDS011;10386;54.314;10.022;2024-02-28T03:44:45;27.27;;;11.30;;
20454;SDS011;10386;54.314;10.022;2024-02-28T03:47:12;30.00;;;12.57;;
20454;SDS011;10386;54.314;10.022;2024-02-28T03:49:39;28.37;;;12.73;;
20454;SDS011;10386;54.314;10.022;2024-02-28T03:52:06;26.10;;;11.70;;
20454;SDS011;10386;54.314;10.022;2024-02-28T03:54:34;29.30;;;12.67;;
20454;SDS011;10386;54.314;10.022;2024-02-28T03:57:01;24.73;;;11.33;;
20454;SDS011;10386;54.314;10.022;2024-02-28T03:59:31;24.10;;;10.80;;
20454;SDS011;10386;54.314;10.022;2024-02-28T04:01:58;24.10;;;11.67;;
20454;SDS011;10386;54.314;10.022;2024-02-28T04:04:25;25.60;;;11.17;;
20454;SDS011;10386;54.314;10.022;2024-02-28T04:06:51;26.83;;;12.03;;
20454;SDS011;10386;54.314;10.022;2024-02-28T04:09:18;26.93;;;12.27;;
20454;SDS011;10386;54.314;10.022;2024-02-28T04:11:46;22.50;;;11.00;;
20454;SDS011;10386;54.314;10.022;2024-02-28T04:14:13;25.33;;;10.83;;
20454;SDS011;10386;54.314;10.022;2024-02-28T04:16:41;27.00;;;11.80;;
20454;SDS011;10386;54.314;10.022;2024-02-28T04:19:10;25.93;;;10.90;;
20454;SDS011;10386;54.314;10.022;2024-02-28T04:21:37;27.60;;;11.27;;
20454;SDS011;10386;54.314;10.022;2024-02-28T04:24:05;26.37;;;11.53;;
20454;SDS011;10386;54.314;10.022;2024-02-28T04:26:32;28.20;;;12.30;;
20454;SDS011;10386;54.314;10.022;2024-02-28T04:29:00;26.43;;;11.53;;
20454;SDS011;10386;54.314;10.022;2024-02-28T04:31:29;31.27;;;12.10;;
20454;SDS011;10386;54.314;10.022;2024-02-28T04:33:56;26.57;;;12.07;;
20454;SDS011;10386;54.314;10.022;2024-02-28T04:36:23;26.57;;;10.70;;
20454;SDS011;10386;54.314;10.022;2024-02-28T04:38:50;27.07;;;10.83;;
20454;SDS011;10386;54.314;10.022;2024-02-28T04:41:16;25.73;;;11.10;;
20454;SDS011;10386;54.314;10.022;2024-02-28T04:43:43;27.90;;;12.00;;
20454;SDS011;10386;54.314;10.022;2024-02-28T04:46:10;26.03;;;11.23;;
20454;SDS011;10386;54.314;10.022;2024-02-28T04:48:37;26.47;;;11.43;;
20454;SDS011;10386;54.314;10.022;2024-02-28T04:51:04;24.90;;;11.77;;
20454;SDS011;10386;54.314;10.022;2024-02-28T04:53:31;29.10;;;12.10;;
20454;SDS011;10386;54.314;10.022;2024-02-28T04:55:58;29.83;;;11.77;;
20454;SDS011;10386;54.314;10.022;2024-02-28T04:58:24;25.20;;;11.60;;
20454;SDS011;10386;54.314;10.022;2024-02-28T05:00:51;29.07;;;11.93;;
20454;SDS011;10386;54.314;10.022;2024-02-28T05:03:18;32.17;;;12.97;;
20454;SDS011;10386;54.314;10.022;2024-02-28T05:05:45;32.97;;;13.20;;
20454;SDS011;10386;54.314;10.022;2024-02-28T05:08:12;40.30;;;15.93;;
20454;SDS011;10386;54.314;10.022;2024-02-28T05:10:39;37.60;;;14.87;;
20454;SDS011;10386;54.314;10.022;2024-02-28T05:13:06;33.73;;;13.87;;
20454;SDS011;10386;54.314;10.022;2024-02-28T05:15:33;35.50;;;13.80;;
20454;SDS011;10386;54.314;10.022;2024-02-28T05:18:00;43.10;;;16.63;;
20454;SDS011;10386;54.314;10.022;2024-02-28T05:20:27;40.40;;;15.43;;
20454;SDS011;10386;54.314;10.022;2024-02-28T05:22:54;47.67;;;17.17;;
20454;SDS011;10386;54.314;10.022;2024-02-28T05:25:20;45.43;;;17.63;;
20454;SDS011;10386;54.314;10.022;2024-02-28T05:27:47;49.77;;;17.97;;
20454;SDS011;10386;54.314;10.022;2024-02-28T05:30:14;45.97;;;17.37;;
20454;SDS011;10386;54.314;10.022;2024-02-28T05:32:41;43.80;;;18.70;;
20454;SDS011;10386;54.314;10.022;2024-02-28T05:35:08;50.47;;;17.43;;
20454;SDS011;10386;54.314;10.022;2024-02-28T05:37:38;46.10;;;17.17;;
20454;SDS011;10386;54.314;10.022;2024-02-28T05:40:06;48.93;;;17.73;;
20454;SDS011;10386;54.314;10.022;2024-02-28T05:42:33;53.27;;;19.13;;
20454;SDS011;10386;54.314;10.022;2024-02-28T05:45:00;49.83;;;18.90;;
20454;SDS011;10386;54.314;10.022;2024-02-28T05:47:27;47.10;;;18.53;;
20454;SDS011;10386;54.314;10.022;2024-02-28T05:49:56;56.17;;;19.83;;
20454;SDS011;10386;54.314;10.022;2024-02-28T05:52:24;51.47;;;19.57;;
20454;SDS011;10386;54.314;10.022;2024-02-28T05:54:54;50.60;;;19.33;;
20454;SDS011;10386;54.314;10.022;2024-02-28T05:57:21;52.40;;;19.23;;
20454;SDS011;10386;54.314;10.022;2024-02-28T05:59:47;54.60;;;18.57;;
20454;SDS011;10386;54.314;10.022;2024-02-28T06:02:14;51.90;;;19.57;;
20454;SDS011;10386;54.314;10.022;2024-02-28T06:04:41;55.97;;;18.83;;
20454;SDS011;10386;54.314;10.022;2024-02-28T06:07:08;53.00;;;19.53;;
20454;SDS011;10386;54.314;10.022;2024-02-28T06:09:35;51.00;;;18.87;;
20454;SDS011;10386;54.314;10.022;2024-02-28T06:12:02;50.10;;;18.93;;
20454;SDS011;10386;54.314;10.022;2024-02-28T06:14:28;46.17;;;17.37;;
20454;SDS011;10386;54.314;10.022;2024-02-28T06:16:55;49.77;;;19.03;;
20454;SDS011;10386;54.314;10.022;2024-02-28T06:19:22;48.23;;;18.93;;
20454;SDS011;10386;54.314;10.022;2024-02-28T06:21:49;54.73;;;19.03;;
20454;SDS011;10386;54.314;10.022;2024-02-28T06:24:16;52.87;;;19.23;;
20454;SDS011;10386;54.314;10.022;2024-02-28T06:26:43;49.80;;;18.87;;
20454;SDS011;10386;54.314;10.022;2024-02-28T06:29:15;47.00;;;17.83;;
20454;SDS011;10386;54.314;10.022;2024-02-28T06:31:42;52.93;;;18.23;;
20454;SDS011;10386;54.314;10.022;2024-02-28T06:34:08;49.17;;;18.70;;
20454;SDS011;10386;54.314;10.022;2024-02-28T06:36:39;52.53;;;19.27;;
20454;SDS011;10386;54.314;10.022;2024-02-28T06:39:07;54.03;;;18.87;;
20454;SDS011;10386;54.314;10.022;2024-02-28T06:41:33;50.87;;;19.60;;
20454;SDS011;10386;54.314;10.022;2024-02-28T06:44:00;49.53;;;19.30;;
20454;SDS011;10386;54.314;10.022;2024-02-28T06:46:27;51.30;;;19.90;;
20454;SDS011;10386;54.314;10.022;2024-02-28T06:48:54;53.87;;;19.53;;
20454;SDS011;10386;54.314;10.022;2024-02-28T06:51:21;57.13;;;21.17;;
20454;SDS011;10386;54.314;10.022;2024-02-28T06:53:48;52.10;;;19.57;;
20454;SDS011;10386;54.314;10.022;2024-02-28T06:56:14;54.23;;;20.37;;
20454;SDS011;10386;54.314;10.022;2024-02-28T06:58:41;52.93;;;19.70;;
20454;SDS011;10386;54.314;10.022;2024-02-28T07:01:08;53.27;;;19.57;;
20454;SDS011;10386;54.314;10.022;2024-02-28T07:03:35;53.80;;;19.50;;
20454;SDS011;10386;54.314;10.022;2024-02-28T07:06:02;51.93;;;19.80;;
20454;SDS011;10386;54.314;10.022;2024-02-28T07:08:29;51.67;;;20.13;;
20454;SDS011;10386;54.314;10.022;2024-02-28T07:10:59;54.00;;;19.63;;
20454;SDS011;10386;54.314;10.022;2024-02-28T07:13:26;53.53;;;20.33;;
20454;SDS011;10386;54.314;10.022;2024-02-28T07:15:53;54.07;;;19.13;;
20454;SDS011;10386;54.314;10.022;2024-02-28T07:18:21;53.40;;;20.93;;
20454;SDS011;10386;54.314;10.022;2024-02-28T07:20:49;58.60;;;20.77;;
20454;SDS011;10386;54.314;10.022;2024-02-28T07:23:16;61.20;;;21.30;;
20454;SDS011;10386;54.314;10.022;2024-02-28T07:25:43;55.00;;;20.03;;
20454;SDS011;10386;54.314;10.022;2024-02-28T07:28:10;57.03;;;21.10;;
20454;SDS011;10386;54.314;10.022;2024-02-28T07:30:36;60.80;;;22.40;;
20454;SDS011;10386;54.314;10.022;2024-02-28T07:33:04;57.70;;;21.70;;
20454;SDS011;10386;54.314;10.022;2024-02-28T07:35:32;59.63;;;21.53;;
20454;SDS011;10386;54.314;10.022;2024-02-28T07:37:59;59.13;;;21.53;;
20454;SDS011;10386;54.314;10.022;2024-02-28T07:40:25;65.83;;;22.60;;
20454;SDS011;10386;54.314;10.022;2024-02-28T07:42:52;61.23;;;21.30;;
20454;SDS011;10386;54.314;10.022;2024-02-28T07:45:19;53.80;;;21.40;;
20454;SDS011;10386;54.314;10.022;2024-02-28T07:47:46;57.67;;;21.73;;
20454;SDS011;10386;54.314;10.022;2024-02-28T07:50:13;59.07;;;21.50;;
20454;SDS011;10386;54.314;10.022;2024-02-28T07:52:40;51.93;;;20.07;;
20454;SDS011;10386;54.314;10.022;2024-02-28T07:55:07;52.63;;;21.20;;
20454;SDS011;10386;54.314;10.022;2024-02-28T07:57:34;59.80;;;21.23;;
20454;SDS011;10386;54.314;10.022;2024-02-28T08:00:00;51.47;;;20.77;;
20454;SDS011;10386;54.314;10.022;2024-02-28T08:02:27;52.43;;;20.70;;
20454;SDS011;10386;54.314;10.022;2024-02-28T08:04:54;59.23;;;21.40;;
20454;SDS011;10386;54.314;10.022;2024-02-28T08:07:22;55.70;;;21.27;;
20454;SDS011;10386;54.314;10.022;2024-02-28T08:09:49;54.80;;;20.27;;
20454;SDS011;10386;54.314;10.022;2024-02-28T08:12:16;50.00;;;19.40;;
20454;SDS011;10386;54.314;10.022;2024-02-28T08:14:43;52.33;;;19.40;;
20454;SDS011;10386;54.314;10.022;2024-02-28T08:17:09;51.97;;;21.13;;
20454;SDS011;10386;54.314;10.022;2024-02-28T08:19:36;48.97;;;20.17;;
20454;SDS011;10386;54.314;10.022;2024-02-28T08:22:03;51.73;;;19.93;;
20454;SDS011;10386;54.314;10.022;2024-02-28T08:24:30;51.47;;;20.57;;
20454;SDS011;10386;54.314;10.022;2024-02-28T08:26:57;54.53;;;19.80;;
20454;SDS011;10386;54.314;10.022;2024-02-28T08:29:24;54.47;;;20.27;;
20454;SDS011;10386;54.314;10.022;2024-02-28T08:31:51;54.90;;;22.23;;
20454;SDS011;10386;54.314;10.022;2024-02-28T08:34:20;54.13;;;20.57;;
20454;SDS011;10386;54.314;10.022;2024-02-28T08:36:47;48.50;;;18.90;;
20454;SDS011;10386;54.314;10.022;2024-02-28T08:39:14;51.07;;;20.27;;
20454;SDS011;10386;54.314;10.022;2024-02-28T08:41:40;47.50;;;19.33;;
20454;SDS011;10386;54.314;10.022;2024-02-28T08:44:07;50.50;;;19.30;;
20454;SDS011;10386;54.314;10.022;2024-02-28T08:46:34;51.30;;;20.20;;
20454;SDS011;10386;54.314;10.022;2024-02-28T08:49:01;50.50;;;19.73;;
20454;SDS011;10386;54.314;10.022;2024-02-28T08:51:27;52.50;;;19.23;;
20454;SDS011;10386;54.314;10.022;2024-02-28T08:53:54;51.67;;;20.03;;
20454;SDS011;10386;54.314;10.022;2024-02-28T08:56:22;51.70;;;20.70;;
20454;SDS011;10386;54.314;10.022;2024-02-28T08:58:49;45.53;;;18.70;;
20454;SDS011;10386;54.314;10.022;2024-02-28T09:01:16;50.17;;;18.87;;
20454;SDS011;10386;54.314;10.022;2024-02-28T09:03:43;47.77;;;17.57;;
20454;SDS011;10386;54.314;10.022;2024-02-28T09:06:10;50.30;;;19.00;;
20454;SDS011;10386;54.314;10.022;2024-02-28T09:08:37;51.17;;;20.23;;
20454;SDS011;10386;54.314;10.022;2024-02-28T09:11:04;49.20;;;19.80;;
20454;SDS011;10386;54.314;10.022;2024-02-28T09:13:31;47.73;;;19.33;;
20454;SDS011;10386;54.314;10.022;2024-02-28T09:15:58;45.70;;;19.43;;
20454;SDS011;10386;54.314;10.022;2024-02-28T09:18:25;46.17;;;17.47;;
20454;SDS011;10386;54.314;10.022;2024-02-28T09:20:52;51.73;;;19.47;;
20454;SDS011;10386;54.314;10.022;2024-02-28T09:23:19;47.13;;;20.17;;
20454;SDS011;10386;54.314;10.022;2024-02-28T09:25:46;47.37;;;19.30;;
20454;SDS011;10386;54.314;10.022;2024-02-28T09:28:13;46.47;;;18.57;;
20454;SDS011;10386;54.314;10.022;2024-02-28T09:30:42;46.37;;;19.03;;
20454;SDS011;10386;54.314;10.022;2024-02-28T09:33:18;45.83;;;18.77;;
20454;SDS011;10386;54.314;10.022;2024-02-28T09:35:46;45.83;;;18.73;;
20454;SDS011;10386;54.314;10.022;2024-02-28T09:38:13;43.40;;;18.13;;
20454;SDS011;10386;54.314;10.022;2024-02-28T09:40:40;52.50;;;20.60;;
20454;SDS011;10386;54.314;10.022;2024-02-28T09:43:13;46.50;;;19.47;;
20454;SDS011;10386;54.314;10.022;2024-02-28T09:45:46;47.47;;;19.23;;
20454;SDS011;10386;54.314;10.022;2024-02-28T09:48:15;46.63;;;19.67;;
20454;SDS011;10386;54.314;10.022;2024-02-28T09:50:43;44.47;;;18.63;;
20454;SDS011;10386;54.314;10.022;2024-02-28T09:53:12;49.10;;;20.30;;
20454;SDS011;10386;54.314;10.022;2024-02-28T09:55:39;50.97;;;20.40;;
20454;SDS011;10386;54.314;10.022;2024-02-28T09:58:07;45.60;;;18.37;;
20454;SDS011;10386;54.314;10.022;2024-02-28T10:00:34;50.23;;;20.63;;
20454;SDS011;10386;54.314;10.022;2024-02-28T10:03:03;47.93;;;20.43;;
20454;SDS011;10386;54.314;10.022;2024-02-28T10:05:33;49.90;;;19.67;;
20454;SDS011;10386;54.314;10.022;2024-02-28T10:08:01;49.73;;;19.53;;
20454;SDS011;10386;54.314;10.022;2024-02-28T10:10:28;53.13;;;20.60;;
20454;SDS011;10386;54.314;10.022;2024-02-28T10:12:56;46.93;;;19.67;;
20454;SDS011;10386;54.314;10.022;2024-02-28T10:15:23;47.80;;;20.13;;
20454;SDS011;10386;54.314;10.022;2024-02-28T10:17:50;50.67;;;20.63;;
20454;SDS011;10386;54.314;10.022;2024-02-28T10:20:16;47.53;;;20.80;;
20454;SDS011;10386;54.314;10.022;2024-02-28T10:22:43;44.63;;;18.63;;
20454;SDS011;10386;54.314;10.022;2024-02-28T10:25:10;50.73;;;19.80;;
20454;SDS011;10386;54.314;10.022;2024-02-28T10:27:37;45.93;;;19.07;;
20454;SDS011;10386;54.314;10.022;2024-02-28T10:30:04;46.03;;;19.47;;
20454;SDS011;10386;54.314;10.022;2024-02-28T10:32:32;50.50;;;19.37;;
20454;SDS011;10386;54.314;10.022;2024-02-28T10:35:03;49.93;;;20.50;;
20454;SDS011;10386;54.314;10.022;2024-02-28T10:37:37;46.57;;;18.93;;
20454;SDS011;10386;54.314;10.022;2024-02-28T10:40:05;44.80;;;18.03;;
20454;SDS011;10386;54.314;10.022;2024-02-28T10:42:33;42.97;;;18.63;;
20454;SDS011;10386;54.314;10.022;2024-02-28T10:45:00;41.07;;;18.50;;
20454;SDS011;10386;54.314;10.022;2024-02-28T10:47:46;43.53;;;18.67;;
20454;SDS011;10386;54.314;10.022;2024-02-28T10:50:17;46.30;;;19.37;;
20454;SDS011;10386;54.314;10.022;2024-02-28T10:52:44;49.97;;;20.77;;
20454;SDS011;10386;54.314;10.022;2024-02-28T10:55:22;48.03;;;19.57;;
20454;SDS011;10386;54.314;10.022;2024-02-28T10:57:53;45.40;;;19.17;;
20454;SDS011;10386;54.314;10.022;2024-02-28T11:00:26;54.90;;;21.17;;
20454;SDS011;10386;54.314;10.022;2024-02-28T11:02:55;47.20;;;19.13;;
20454;SDS011;10386;54.314;10.022;2024-02-28T11:05:23;58.00;;;19.33;;
20454;SDS011;10386;54.314;10.022;2024-02-28T11:07:54;45.93;;;19.23;;
20454;SDS011;10386;54.314;10.022;2024-02-28T11:10:22;47.57;;;19.77;;
20454;SDS011;10386;54.314;10.022;2024-02-28T11:12:54;49.90;;;18.90;;
20454;SDS011;10386;54.314;10.022;2024-02-28T11:15:24;46.50;;;19.30;;
20454;SDS011;10386;54.314;10.022;2024-02-28T11:17:52;48.20;;;19.80;;
20454;SDS011;10386;54.314;10.022;2024-02-28T11:20:19;45.20;;;19.07;;
20454;SDS011;10386;54.314;10.022;2024-02-28T11:22:48;44.00;;;19.13;;
20454;SDS011;10386;54.314;10.022;2024-02-28T11:25:24;49.37;;;19.67;;
20454;SDS011;10386;54.314;10.022;2024-02-28T11:27:51;49.97;;;18.60;;
20454;SDS011;10386;54.314;10.022;2024-02-28T11:30:17;49.07;;;20.33;;
20454;SDS011;10386;54.314;10.022;2024-02-28T11:32:45;49.93;;;20.90;;
20454;SDS011;10386;54.314;10.022;2024-02-28T11:35:12;53.13;;;21.30;;
20454;SDS011;10386;54.314;10.022;2024-02-28T11:37:39;53.60;;;20.97;;
20454;SDS011;10386;54.314;10.022;2024-02-28T11:40:08;50.10;;;19.87;;
20454;SDS011;10386;54.314;10.022;2024-02-28T11:42:36;50.13;;;20.90;;
20454;SDS011;10386;54.314;10.022;2024-02-28T11:45:05;51.07;;;20.13;;
20454;SDS011;10386;54.314;10.022;2024-02-28T11:47:36;52.00;;;20.43;;
20454;SDS011;10386;54.314;10.022;2024-02-28T11:50:03;49.93;;;20.27;;
20454;SDS011;10386;54.314;10.022;2024-02-28T11:52:33;56.03;;;20.57;;
20454;SDS011;10386;54.314;10.022;2024-02-28T11:55:00;50.37;;;20.30;;
20454;SDS011;10386;54.314;10.022;2024-02-28T11:57:27;48.67;;;21.50;;
20454;SDS011;10386;54.314;10.022;2024-02-28T11:59:56;53.07;;;20.83;;
20454;SDS011;10386;54.314;10.022;2024-02-28T12:02:23;53.40;;;21.57;;
20454;SDS011;10386;54.314;10.022;2024-02-28T12:04:53;53.40;;;20.43;;
20454;SDS011;10386;54.314;10.022;2024-02-28T12:07:21;52.27;;;21.27;;
20454;SDS011;10386;54.314;10.022;2024-02-28T12:09:48;54.07;;;21.03;;
20454;SDS011;10386;54.314;10.022;2024-02-28T12:12:15;52.47;;;21.70;;
20454;SDS011;10386;54.314;10.022;2024-02-28T12:14:42;52.40;;;21.10;;
20454;SDS011;10386;54.314;10.022;2024-02-28T12:17:09;54.53;;;21.43;;
20454;SDS011;10386;54.314;10.022;2024-02-28T12:19:37;59.00;;;22.10;;
20454;SDS011;10386;54.314;10.022;2024-02-28T12:22:05;51.70;;;20.50;;
20454;SDS011;10386;54.314;10.022;2024-02-28T12:24:33;51.70;;;21.00;;
20454;SDS011;10386;54.314;10.022;2024-02-28T12:27:00;52.20;;;20.63;;
20454;SDS011;10386;54.314;10.022;2024-02-28T12:29:27;56.27;;;22.60;;
20454;SDS011;10386;54.314;10.022;2024-02-28T12:31:54;57.00;;;20.93;;
20454;SDS011;10386;54.314;10.022;2024-02-28T12:34:21;51.67;;;20.30;;
20454;SDS011;10386;54.314;10.022;2024-02-28T12:36:47;54.47;;;20.30;;
20454;SDS011;10386;54.314;10.022;2024-02-28T12:39:14;51.53;;;19.93;;
20454;SDS011;10386;54.314;10.022;2024-02-28T12:41:41;53.30;;;21.00;;
20454;SDS011;10386;54.314;10.022;2024-02-28T12:44:08;49.17;;;19.87;;
20454;SDS011;10386;54.314;10.022;2024-02-28T12:46:36;53.23;;;20.37;;
20454;SDS011;10386;54.314;10.022;2024-02-28T12:49:03;49.40;;;19.13;;
20454;SDS011;10386;54.314;10.022;2024-02-28T12:51:37;49.47;;;20.00;;
20454;SDS011;10386;54.314;10.022;2024-02-28T12:54:08;52.97;;;20.73;;
20454;SDS011;10386;54.314;10.022;2024-02-28T12:56:36;54.13;;;20.77;;
20454;SDS011;10386;54.314;10.022;2024-02-28T12:59:04;54.10;;;20.63;;
20454;SDS011;10386;54.314;10.022;2024-02-28T13:01:33;51.97;;;20.63;;
20454;SDS011;10386;54.314;10.022;2024-02-28T13:04:01;48.10;;;19.47;;
20454;SDS011;10386;54.314;10.022;2024-02-28T13:06:29;49.30;;;20.13;;
20454;SDS011;10386;54.314;10.022;2024-02-28T13:08:56;49.13;;;18.67;;
20454;SDS011;10386;54.314;10.022;2024-02-28T13:11:23;45.30;;;18.20;;
20454;SDS011;10386;54.314;10.022;2024-02-28T13:13:51;50.07;;;20.03;;
20454;SDS011;10386;54.314;10.022;2024-02-28T13:16:19;45.77;;;18.50;;
20454;SDS011;10386;54.314;10.022;2024-02-28T13:18:48;49.47;;;19.47;;
20454;SDS011;10386;54.314;10.022;2024-02-28T13:21:15;41.40;;;17.13;;
20454;SDS011;10386;54.314;10.022;2024-02-28T13:23:42;51.03;;;18.43;;
20454;SDS011;10386;54.314;10.022;2024-02-28T13:26:08;50.37;;;18.20;;
20454;SDS011;10386;54.314;10.022;2024-02-28T13:28:35;48.67;;;19.77;;
20454;SDS011;10386;54.314;10.022;2024-02-28T13:31:02;46.80;;;18.90;;
20454;SDS011;10386;54.314;10.022;2024-02-28T13:33:33;50.63;;;19.67;;
20454;SDS011;10386;54.314;10.022;2024-02-28T13:36:00;49.07;;;19.17;;
20454;SDS011;10386;54.314;10.022;2024-02-28T13:38:26;39.33;;;16.80;;
20454;SDS011;10386;54.314;10.022;2024-02-28T13:40:53;51.40;;;19.53;;
20454;SDS011;10386;54.314;10.022;2024-02-28T13:43:20;45.50;;;18.77;;
20454;SDS011;10386;54.314;10.022;2024-02-28T13:45:50;47.20;;;19.33;;
20454;SDS011;10386;54.314;10.022;2024-02-28T13:48:22;45.93;;;19.03;;
20454;SDS011;10386;54.314;10.022;2024-02-28T13:50:52;42.73;;;17.13;;
20454;SDS011;10386;54.314;10.022;2024-02-28T13:53:19;45.90;;;17.87;;
20454;SDS011;10386;54.314;10.022;2024-02-28T13:55:49;40.97;;;17.00;;
20454;SDS011;10386;54.314;10.022;2024-02-28T13:58:15;42.47;;;16.17;;
20454;SDS011;10386;54.314;10.022;2024-02-28T14:00:45;43.23;;;17.43;;
20454;SDS011;10386;54.314;10.022;2024-02-28T14:03:14;40.80;;;16.70;;
20454;SDS011;10386;54.314;10.022;2024-02-28T14:05:41;42.60;;;17.90;;
20454;SDS011;10386;54.314;10.022;2024-02-28T14:08:08;39.93;;;16.13;;
20454;SDS011;10386;54.314;10.022;2024-02-28T14:10:36;39.10;;;16.07;;